North Fond du Lac, Wisconsin
Current Conditions -  °F | °C
As of 3:53 AM on Saturday 22 Nov 2014 (Local Time) from KFLD Reporting Station
Overcast Overcast  
Wind Chill: 22°   Ceiling: 1400
Heat Index: 32°   Visibility: 10mi
Dew Point: 24°   Wind: 14mph
Humidity: 73%   Direction: 220°SW
Pressure: 29.96"   Gusts: 24mph
Location:  43.7898°N, 88.5291°W
Report Text: KFLD 220953Z AUTO 22012G21KT 10SM OVC014 00/M04 A2996 RMK AO2 SLP155 T00001044
Loading
Personal Weather Stations






























Interactive Weather Map New forecast layout! Learn more

10-Day Weather Forecast

Advertisements
Track Severe Weather on mobile